Brevard, NC (28712)

11:38 PM EDT on July 29, 2015 (GMT -0400)
Barclay Road Weather | | Change Station
CLOSE
Current Station
Personal Weather Station
Location: Brevard, NC
Elevation: 2182 ft
Nearby Weather Stations

Elev 2182 ft 35.20 °N, 82.74 °W | Updated 2 seconds ago

Clear
Clear
70.4 °F
Feels Like 70.4 °F
N
0.0
Wind Variable Wind from SSE
Gusts 0.0 mph

Today
High -- | Low -- °F
--% Chance of Precip.
Yesterday
High -- | Low -- °F
Precip. -- in
6:37 AM 8:36 PM
Waxing Gibbous, 98% visible
Pressure 30.01 in
Visibility 9.0 miles
Clouds Clear
Dew Point 70 °F
Humidity 98%
Rainfall 0.00 in
Snow Depth Not available.
UV 0 out of 12
Pollen 3.70 out of 12
Air Quality Not available.
Flu Activity Not available.
METAR KAVL 300254Z AUTO 25003KT 9SM CLR 23/22 A3010 RMK AO2 SLP162 T02330217 53012

More Conditions Fewer Conditions

Pressure 30.01 in
Visibility 9.0 miles
Clouds Clear
Dew Point 70 °F
Humidity 98%
Rainfall 0.00 in
Snow Depth Not available.
UV 0 out of 12
Pollen 3.70 out of 12
Air Quality Not available.
Flu Activity Not available.
METAR KAVL 300254Z AUTO 25003KT 9SM CLR 23/22 A3010 RMK AO2 SLP162 T02330217 53012

More Conditions Fewer Conditions

10-Day Weather Forecast

×

Almanac

Astronomy

Jul. 29, 2015 Rise Set
Actual Time
Civil Twilight
Nautical Twilight
Astronomical Twilight
Moon
Length of Visible Light
Length of Day
Tomorrow will be .
, % of the Moon is Illuminated

Today's Extremes

State Highs State Lows

Community

WunderPhotos

Upload Photos

1,842,288 photos uploaded!

WunderBlogs® & News

Nearby

Air Quality

  Air Quality AQ Index Pollutant
Not available.

Snow Depth

Station Depth Elevation

Earthquake Activity

City Distance Mag. Time & Date
Minimum magnitude displayed is 2.5.

Coastal Water Temperatures

Place Temperature

Stations

Nearby Weather Stations

Station Location Temp. Windchill Dew Point Humidity Wind Precip. Elev Updated Type